Terminal Aerodrome Forecast
Issued by NWS

Home | Current Version | Previous Version | Text Only | Print | Product List | Glossary On
Versions: 1 2 3 4 5 6 7 8 9 10 11 12 13 14 15 16 17 18 19
529
FTUS44 KLZK 291503 AAA
TAFPBF
TAF AMD
KPBF 291503Z 2915/3012 17021G26KT P6SM BKN026 OVC030
     FM291700 16012G25KT P6SM -SHRA VCTS SCT025 OVC050CB
      TEMPO 2921/3001 VRB15G35KT 2SM +TSRA BR BKN025CB OVC050
     FM300100 15010G20KT 6SM -TSRA BR BKN010 OVC040CB=

USA.gov is the U.S. government's official web portal to all federal, state and local government web resources and services.